Terminal Aerodrome Forecast
Issued by NWS

Home | Current Version | Previous Version | Text Only | Print | Product List | Glossary On
Versions: 1 2 3 4 5 6 7 8 9 10 11 12
000
FTUS45 KPSR 171120
TAFSDL
TAF
KSDL 171120Z 1712/1812 VRB03KT P6SM SCT250
     FM172100 23005KT P6SM BKN250
     FM180300 00000KT P6SM BKN250=

USA.gov is the U.S. government's official web portal to all federal, state and local government web resources and services.